Time;durP1;ratioP1;P1;durP2;ratioP2;P2;SDS_P1;SDS_P2;PMS_P1;PMS_P2;Temp;Humidity;BMP_temperature;BMP_pressure;BME280_temperature;BME280_humidity;BME280_pressure;Samples;Min_cycle;Max_cycle;Signal;HPM_P1;HPM_P2
2022/11/14 00:01:05;;;;;;;;;;;;;;;16.97;65.65;99256.38;2093240;28;19920;-47
2022/11/14 00:02:06;;;;;;;;;;;;;;;16.98;65.72;99262.56;2095489;28;19920;-48
2022/11/14 00:03:08;;;;;;;;;;;;;;;16.98;65.69;99258.03;2095933;28;20023;-47
2022/11/14 00:04:10;;;;;;;;;;;;;;;16.98;65.79;99262.56;2088514;28;20060;-47
2022/11/14 00:05:12;;;;;;;;;;;;;;;16.97;65.77;99251.03;2092574;28;19924;-44
2022/11/14 00:06:13;;;;;;;;;;;;;;;16.96;65.67;99253.88;2091559;28;19924;-48
2022/11/14 00:07:14;;;;;;;;;;;;;;;16.96;65.94;99248.50;2095695;28;20505;-47
2022/11/14 00:08:17;;;;;;;;;;;;;;;16.95;65.87;99247.69;2089568;28;20047;-46
2022/11/14 00:09:18;;;;;;;;;;;;;;;16.95;65.83;99253.03;2095814;28;20397;-48
2022/11/14 00:10:19;;;;;;;;;;;;;;;16.97;65.89;99245.66;2091609;28;19920;-45
2022/11/14 00:11:20;;;;;;;;;;;;;;;16.97;65.78;99247.50;2093693;28;19935;-45
2022/11/14 00:12:21;;;;;;;;;;;;;;;16.96;65.79;99248.50;2093696;28;19942;-46
2022/11/14 00:13:22;;;;;;;;;;;;;;;16.97;65.72;99248.34;2093047;28;19921;-46
2022/11/14 00:14:23;;;;;;;;;;;;;;;16.96;65.79;99248.50;2094288;28;19953;-45
2022/11/14 00:15:24;;;;;;;;;;;;;;;16.96;65.59;99243.16;2098523;28;19928;-46
2022/11/14 00:16:26;;;;;;;;;;;;;;;16.95;65.85;99253.03;2092885;28;19925;-45
2022/11/14 00:17:27;;;;;;;;;;;;;;;16.96;65.78;99245.81;2097770;28;19935;-45
2022/11/14 00:18:28;;;;;;;;;;;;;;;16.94;65.79;99247.88;2097210;28;20409;-46
2022/11/14 00:19:29;;;;;;;;;;;;;;;16.95;65.75;99244.16;2098019;28;19936;-47
2022/11/14 00:20:33;;;;;;;;;;;;;;;16.93;65.75;99240.81;2098305;28;20031;-45
2022/11/14 00:21:34;;;;;;;;;;;;;;;16.94;65.76;99245.19;2096175;28;20390;-45
2022/11/14 00:22:35;;;;;;;;;;;;;;;16.92;65.78;99240.00;2095423;28;19930;-47
2022/11/14 00:23:36;;;;;;;;;;;;;;;16.94;65.74;99247.88;2098331;28;19928;-44
2022/11/14 00:24:37;;;;;;;;;;;;;;;16.94;65.58;99245.19;2096413;28;20393;-47
2022/11/14 00:25:38;;;;;;;;;;;;;;;16.94;65.64;99235.31;2090217;28;20294;-45
2022/11/14 00:26:39;;;;;;;;;;;;;;;16.93;65.82;99240.81;2094362;28;19934;-48
2022/11/14 00:27:40;;;;;;;;;;;;;;;16.92;65.68;99237.31;2096243;28;19935;-47
2022/11/14 00:28:41;;;;;;;;;;;;;;;16.90;65.88;99236.66;2097087;28;19934;-45
2022/11/14 00:29:42;;;;;;;;;;;;;;;16.89;65.95;99231.50;2095576;28;19936;-46
2022/11/14 00:30:46;;;;;;;;;;;;;;;16.90;65.89;99233.16;2091808;28;20022;-46
2022/11/14 00:31:46;;;;;;;;;;;;;;;16.91;65.87;99230.31;2095481;28;19927;-44
2022/11/14 00:32:48;;;;;;;;;;;;;;;16.91;65.74;99232.97;2094539;28;19946;-46
2022/11/14 00:33:48;;;;;;;;;;;;;;;16.91;65.82;99226.75;2096240;28;20399;-50
2022/11/14 00:34:50;;;;;;;;;;;;;;;16.92;65.61;99226.59;2096662;28;19970;-45
2022/11/14 00:35:54;;;;;;;;;;;;;;;16.92;65.82;99226.59;2097556;27;20281;-48
2022/11/14 00:36:55;;;;;;;;;;;;;;;16.92;65.72;99237.31;2092903;28;19924;-47
2022/11/14 00:37:56;;;;;;;;;;;;;;;16.92;65.67;99231.13;2099582;28;20305;-45
2022/11/14 00:38:57;;;;;;;;;;;;;;;16.91;65.79;99232.13;2092025;28;19924;-45
2022/11/14 00:39:58;;;;;;;;;;;;;;;16.89;65.77;99229.63;2086139;28;19932;-47
2022/11/14 00:40:59;;;;;;;;;;;;;;;16.92;65.69;99233.81;2088303;28;20583;-45
2022/11/14 00:42:00;;;;;;;;;;;;;;;16.91;65.79;99238.34;2095365;28;19924;-46
2022/11/14 00:43:02;;;;;;;;;;;;;;;16.92;65.65;99237.31;2097175;28;20006;-46
2022/11/14 00:44:02;;;;;;;;;;;;;;;16.89;65.76;99234.16;2094312;28;19928;-45
2022/11/14 00:45:04;;;;;;;;;;;;;;;16.89;65.72;99237.69;2096179;28;19920;-45
2022/11/14 00:46:05;;;;;;;;;;;;;;;16.89;65.77;99231.50;2094475;28;20343;-45
2022/11/14 00:47:06;;;;;;;;;;;;;;;16.89;65.74;99226.13;2091610;28;19924;-46
2022/11/14 00:48:07;;;;;;;;;;;;;;;16.88;65.74;99224.44;2092067;28;19924;-45
2022/11/14 00:49:09;;;;;;;;;;;;;;;16.88;65.82;99221.75;2097539;27;19924;-45
2022/11/14 00:50:09;;;;;;;;;;;;;;;16.87;65.80;99218.25;2100082;28;19924;-46
2022/11/14 00:51:12;;;;;;;;;;;;;;;16.89;65.77;99226.13;2096595;28;19930;-44
2022/11/14 00:52:13;;;;;;;;;;;;;;;16.89;65.71;99218.09;2095745;28;19939;-45
2022/11/14 00:53:14;;;;;;;;;;;;;;;16.87;65.92;99217.44;2096954;28;20328;-45
2022/11/14 00:54:15;;;;;;;;;;;;;;;16.87;65.79;99214.75;2096859;28;19923;-46
2022/11/14 00:55:17;;;;;;;;;;;;;;;16.85;65.78;99212.22;2091642;28;19927;-45
2022/11/14 00:56:17;;;;;;;;;;;;;;;16.87;65.89;99212.91;2085427;28;19929;-46
2022/11/14 00:57:19;;;;;;;;;;;;;;;16.88;65.73;99208.38;2093461;28;20451;-47
2022/11/14 00:58:20;;;;;;;;;;;;;;;16.85;65.87;99214.91;2097075;28;19935;-45
2022/11/14 00:59:21;;;;;;;;;;;;;;;16.87;65.79;99212.06;2096844;28;20558;-46
2022/11/14 01:00:22;;;;;;;;;;;;;;;16.86;65.75;99210.41;2092121;28;24081;-46
2022/11/14 01:01:23;;;;;;;;;;;;;;;16.86;65.94;99211.25;2095995;28;19924;-45
2022/11/14 01:02:24;;;;;;;;;;;;;;;16.88;65.73;99211.03;2098454;28;19936;-45
2022/11/14 01:03:25;;;;;;;;;;;;;;;16.86;65.81;99211.25;2092425;28;19920;-45
2022/11/14 01:04:26;;;;;;;;;;;;;;;16.86;65.75;99211.25;2089347;28;19928;-45
2022/11/14 01:05:28;;;;;;;;;;;;;;;16.86;65.74;99208.56;2097377;28;20011;-45
2022/11/14 01:06:30;;;;;;;;;;;;;;;16.85;65.81;99211.41;2094495;28;22609;-45
2022/11/14 01:07:31;;;;;;;;;;;;;;;16.86;65.70;99213.91;2091583;28;19924;-46
2022/11/14 01:08:32;;;;;;;;;;;;;;;16.85;65.79;99208.72;2095824;28;19925;-47
2022/11/14 01:09:33;;;;;;;;;;;;;;;16.85;65.77;99214.91;2093567;27;19925;-46
2022/11/14 01:10:37;;;;;;;;;;;;;;;16.86;65.75;99221.13;2094885;28;20485;-46
2022/11/14 01:11:38;;;;;;;;;;;;;;;16.86;65.78;99215.78;2093676;28;20730;-45
2022/11/14 01:12:39;;;;;;;;;;;;;;;16.85;65.81;99219.44;2095241;28;19924;-47
2022/11/14 01:13:41;;;;;;;;;;;;;;;16.86;65.78;99221.13;2097844;28;20325;-46
2022/11/14 01:14:41;;;;;;;;;;;;;;;16.86;65.66;99227.31;2084594;28;20042;-46
2022/11/14 01:15:44;;;;;;;;;;;;;;;16.84;65.73;99223.97;2086561;28;20046;-46
2022/11/14 01:16:44;;;;;;;;;;;;;;;16.85;65.79;99222.94;2096547;28;19924;-48
2022/11/14 01:17:46;;;;;;;;;;;;;;;16.83;65.75;99222.31;2094631;28;20023;-46
2022/11/14 01:18:46;;;;;;;;;;;;;;;16.84;65.70;99225.81;2098743;28;19927;-46
2022/11/14 01:19:48;;;;;;;;;;;;;;;16.83;65.92;99221.50;2094133;27;19974;-46
2022/11/14 01:20:49;;;;;;;;;;;;;;;16.84;65.81;99223.16;2094081;28;19924;-46
2022/11/14 01:21:52;;;;;;;;;;;;;;;16.82;65.82;99223.31;2092901;28;20570;-45
2022/11/14 01:22:52;;;;;;;;;;;;;;;16.83;65.68;99221.50;2094836;28;19932;-46
2022/11/14 01:23:54;;;;;;;;;;;;;;;16.82;65.83;99217.94;2091852;28;20359;-46
2022/11/14 01:24:57;;;;;;;;;;;;;;;16.84;65.78;99212.44;2097508;27;19923;-45
2022/11/14 01:26:01;;;;;;;;;;;;;;;16.84;65.80;99217.78;2090148;28;19985;-48
2022/11/14 01:27:01;;;;;;;;;;;;;;;16.81;65.83;99215.47;2092704;28;20507;-44
2022/11/14 01:28:05;;;;;;;;;;;;;;;16.81;65.78;99208.25;2088571;28;19935;-47
2022/11/14 01:29:06;;;;;;;;;;;;;;;16.82;65.71;99211.75;2095518;28;19920;-47
2022/11/14 01:30:08;;;;;;;;;;;;;;;16.83;65.68;99208.09;2093843;28;20023;-46
2022/11/14 01:31:09;;;;;;;;;;;;;;;16.82;65.73;99209.91;2093456;28;19924;-45
2022/11/14 01:32:11;;;;;;;;;;;;;;;16.83;65.79;99211.59;2096154;28;19989;-48
2022/11/14 01:33:11;;;;;;;;;;;;;;;16.82;65.74;99209.91;2093015;28;19920;-47
2022/11/14 01:34:13;;;;;;;;;;;;;;;16.82;65.72;99209.09;2095078;28;20023;-46
2022/11/14 01:35:14;;;;;;;;;;;;;;;16.81;65.87;99208.25;2095702;28;19927;-46
2022/11/14 01:36:15;;;;;;;;;;;;;;;16.79;65.71;99209.44;2093134;28;19920;-47
2022/11/14 01:37:17;;;;;;;;;;;;;;;16.81;65.67;99213.63;2092717;28;19939;-47
2022/11/14 01:38:19;;;;;;;;;;;;;;;16.82;65.70;99209.09;2097030;28;20423;-47
2022/11/14 01:39:19;;;;;;;;;;;;;;;16.79;65.90;99212.13;2093062;27;20683;-46
2022/11/14 01:40:21;;;;;;;;;;;;;;;16.79;65.84;99212.13;2095538;28;19926;-46
2022/11/14 01:41:21;;;;;;;;;;;;;;;16.78;65.78;99215.81;2096577;28;19931;-46
2022/11/14 01:42:23;;;;;;;;;;;;;;;16.78;65.86;99213.97;2098769;28;19930;-47
2022/11/14 01:43:28;;;;;;;;;;;;;;;16.78;65.79;99210.47;2097001;28;20597;-46
2022/11/14 01:44:42;;;;;;;;;;;;;;;16.77;65.78;99206.09;2097827;27;19924;-47
2022/11/14 01:45:49;;;;;;;;;;;;;;;16.78;65.77;99210.47;2092988;28;19935;-45
2022/11/14 01:46:54;;;;;;;;;;;;;;;16.79;65.71;99207.59;2095007;28;19928;-45
2022/11/14 01:47:55;;;;;;;;;;;;;;;16.81;65.80;99207.44;2094672;28;20382;-47
2022/11/14 01:48:57;;;;;;;;;;;;;;;16.79;65.77;99209.44;2096319;28;19934;-46
2022/11/14 01:49:59;;;;;;;;;;;;;;;16.78;65.79;99202.44;2098138;28;19924;-49
2022/11/14 01:51:03;;;;;;;;;;;;;;;16.77;65.67;99208.78;2094869;28;20445;-48
2022/11/14 01:52:04;;;;;;;;;;;;;;;16.75;65.82;99204.41;2094659;28;19962;-46
2022/11/14 01:53:07;;;;;;;;;;;;;;;16.78;65.80;99207.78;2091217;28;19924;-46
2022/11/14 01:54:11;;;;;;;;;;;;;;;16.78;65.66;99203.25;2095352;28;19931;-46
2022/11/14 01:55:12;;;;;;;;;;;;;;;16.77;65.85;99201.59;2092530;28;19986;-47
2022/11/14 01:56:14;;;;;;;;;;;;;;;16.79;65.69;99201.41;2092708;28;20567;-46
2022/11/14 01:57:18;;;;;;;;;;;;;;;16.78;65.67;99202.44;2091737;28;20018;-45
2022/11/14 01:58:19;;;;;;;;;;;;;;;16.75;65.87;99201.72;2090955;28;19947;-46
2022/11/14 01:59:22;;;;;;;;;;;;;;;16.75;65.80;99193.69;2092988;28;19936;-47
2022/11/14 02:00:23;;;;;;;;;;;;;;;16.77;65.77;99195.38;2090718;28;21007;-46
2022/11/14 02:01:25;;;;;;;;;;;;;;;16.76;65.70;99189.16;2095061;28;20791;-47
2022/11/14 02:02:26;;;;;;;;;;;;;;;16.77;65.82;99188.22;2091036;28;20795;-47
2022/11/14 02:03:28;;;;;;;;;;;;;;;16.78;65.77;99194.41;2095820;28;19932;-46
2022/11/14 02:04:29;;;;;;;;;;;;;;;16.78;65.68;99191.72;2090650;28;20425;-47
2022/11/14 02:05:31;;;;;;;;;;;;;;;16.75;65.89;99196.38;2088828;28;19924;-46
2022/11/14 02:06:34;;;;;;;;;;;;;;;16.74;65.81;99201.91;2092033;28;21585;-47
2022/11/14 02:07:37;;;;;;;;;;;;;;;16.76;65.69;99205.25;2097552;28;20581;-46
2022/11/14 02:08:41;;;;;;;;;;;;;;;16.73;65.84;99201.06;2084859;28;20138;-47
2022/11/14 02:09:44;;;;;;;;;;;;;;;16.75;65.75;99206.25;2093513;28;19924;-46
2022/11/14 02:10:45;;;;;;;;;;;;;;;16.74;65.68;99202.75;2094390;28;20443;-47
2022/11/14 02:11:46;;;;;;;;;;;;;;;16.74;65.84;99205.44;2094668;28;19920;-47
2022/11/14 02:12:49;;;;;;;;;;;;;;;16.74;65.66;99209.94;2090658;28;20056;-45
2022/11/14 02:13:50;;;;;;;;;;;;;;;16.72;65.82;99198.59;2092510;28;19920;-46
2022/11/14 02:14:54;;;;;;;;;;;;;;;16.72;65.79;99199.41;2088553;28;21460;-46
2022/11/14 02:15:55;;;;;;;;;;;;;;;16.73;65.80;99195.72;2095401;28;19976;-46
2022/11/14 02:16:56;;;;;;;;;;;;;;;16.73;65.81;99205.59;2093064;28;20922;-47
2022/11/14 02:17:57;;;;;;;;;;;;;;;16.75;65.70;99196.38;2083098;28;20480;-50
2022/11/14 02:18:59;;;;;;;;;;;;;;;16.74;65.73;99202.75;2096369;28;22224;-45
2022/11/14 02:20:05;;;;;;;;;;;;;;;16.72;65.77;99199.41;2093521;28;19927;-46
2022/11/14 02:21:07;;;;;;;;;;;;;;;16.74;65.80;99204.56;2091199;28;19924;-49
2022/11/14 02:22:07;;;;;;;;;;;;;;;16.74;65.84;99202.75;2093895;28;20558;-44
2022/11/14 02:23:10;;;;;;;;;;;;;;;16.71;65.79;99200.41;2092394;28;19930;-45
2022/11/14 02:24:12;;;;;;;;;;;;;;;16.71;65.89;99202.25;2094832;28;20007;-47
2022/11/14 02:25:15;;;;;;;;;;;;;;;16.73;65.85;99195.72;2082298;28;20384;-45
2022/11/14 02:26:17;;;;;;;;;;;;;;;16.73;65.77;99192.22;2090878;28;19924;-45
2022/11/14 02:27:17;;;;;;;;;;;;;;;16.71;65.82;99197.72;2095108;28;20453;-46
2022/11/14 02:28:20;;;;;;;;;;;;;;;16.73;65.72;99194.88;2085795;28;20019;-44
2022/11/14 02:29:21;;;;;;;;;;;;;;;16.73;65.77;99189.53;2091554;28;20546;-46
2022/11/14 02:30:23;;;;;;;;;;;;;;;16.72;65.76;99191.38;2090761;28;19950;-44
2022/11/14 02:31:23;;;;;;;;;;;;;;;16.72;65.86;99194.06;2085605;28;19929;-45
2022/11/14 02:32:25;;;;;;;;;;;;;;;16.71;65.76;99192.38;2096359;28;20192;-46
2022/11/14 02:33:26;;;;;;;;;;;;;;;16.70;65.75;99200.59;2094011;28;19931;-44
2022/11/14 02:34:27;;;;;;;;;;;;;;;16.69;65.79;99193.59;2093331;28;19920;-44
2022/11/14 02:35:30;;;;;;;;;;;;;;;16.70;65.77;99196.06;2096176;28;19924;-45
2022/11/14 02:36:30;;;;;;;;;;;;;;;16.70;65.85;99193.38;2091914;28;19924;-45
2022/11/14 02:37:32;;;;;;;;;;;;;;;16.70;65.81;99192.56;2093262;28;19931;-45
2022/11/14 02:38:33;;;;;;;;;;;;;;;16.70;65.75;99204.09;2086421;28;19921;-44
2022/11/14 02:39:34;;;;;;;;;;;;;;;16.70;65.78;99196.06;2091266;28;19927;-45
2022/11/14 02:40:35;;;;;;;;;;;;;;;16.69;65.72;99199.78;2091591;28;19924;-45
2022/11/14 02:41:36;;;;;;;;;;;;;;;16.70;65.75;99201.44;2092428;28;19920;-46
2022/11/14 02:42:37;;;;;;;;;;;;;;;16.70;65.76;99201.44;2097501;28;19931;-46
2022/11/14 02:43:38;;;;;;;;;;;;;;;16.69;65.80;99197.09;2089706;28;19928;-45
2022/11/14 02:44:39;;;;;;;;;;;;;;;16.69;65.76;99199.78;2091606;28;20570;-45
2022/11/14 02:45:41;;;;;;;;;;;;;;;16.68;65.71;99206.13;2094919;28;20003;-45
2022/11/14 02:46:41;;;;;;;;;;;;;;;16.71;65.83;99203.09;2080347;28;20470;-47
2022/11/14 02:47:43;;;;;;;;;;;;;;;16.69;65.69;99199.78;2093432;28;19926;-46
2022/11/14 02:48:44;;;;;;;;;;;;;;;16.70;65.71;99201.44;2096205;28;19931;-46
2022/11/14 02:49:45;;;;;;;;;;;;;;;16.70;65.71;99200.59;2093830;28;19923;-47
2022/11/14 02:50:49;;;;;;;;;;;;;;;16.68;65.72;99200.75;2085276;28;20485;-45
2022/11/14 02:51:50;;;;;;;;;;;;;;;16.68;65.71;99195.41;2091530;28;19928;-46
2022/11/14 02:52:52;;;;;;;;;;;;;;;16.67;65.79;99196.44;2093258;28;20066;-45
2022/11/14 02:53:53;;;;;;;;;;;;;;;16.69;65.67;99193.59;2095646;28;19981;-45
2022/11/14 02:54:54;;;;;;;;;;;;;;;16.67;65.74;99188.41;2097064;28;19927;-45
2022/11/14 02:55:55;;;;;;;;;;;;;;;16.67;65.58;99190.25;2092658;28;19927;-47
2022/11/14 02:56:56;;;;;;;;;;;;;;;16.68;65.71;99189.22;2091786;28;19920;-44
2022/11/14 02:57:57;;;;;;;;;;;;;;;16.67;65.74;99188.41;2091825;28;19931;-45
2022/11/14 02:58:58;;;;;;;;;;;;;;;16.66;65.71;99192.09;2090730;28;19946;-46
2022/11/14 02:59:59;;;;;;;;;;;;;;;16.67;65.76;99193.75;2090486;28;20378;-52
2022/11/14 03:01:01;;;;;;;;;;;;;;;16.67;65.88;99190.25;2091468;28;19925;-44
2022/11/14 03:02:01;;;;;;;;;;;;;;;16.66;65.92;99196.59;2092182;28;19927;-47
2022/11/14 03:03:03;;;;;;;;;;;;;;;16.65;65.83;99194.94;2093690;28;20343;-45
2022/11/14 03:04:04;;;;;;;;;;;;;;;16.66;65.69;99189.41;2091705;28;19928;-46
2022/11/14 03:05:05;;;;;;;;;;;;;;;16.67;65.68;99195.59;2090681;28;19930;-45
2022/11/14 03:06:07;;;;;;;;;;;;;;;16.65;65.84;99190.41;2084082;28;19936;-46
2022/11/14 03:07:09;;;;;;;;;;;;;;;16.63;65.86;99187.09;2095159;28;19920;-44
2022/11/14 03:08:10;;;;;;;;;;;;;;;16.66;65.73;99192.09;2095993;28;19927;-45
2022/11/14 03:09:12;;;;;;;;;;;;;;;16.64;65.73;99186.06;2093459;28;20285;-46
2022/11/14 03:10:12;;;;;;;;;;;;;;;16.64;65.77;99195.97;2090481;28;19928;-45
2022/11/14 03:11:14;;;;;;;;;;;;;;;16.67;65.62;99196.44;2098277;28;20011;-46
2022/11/14 03:12:15;;;;;;;;;;;;;;;16.66;65.76;99193.91;2089944;28;19920;-44
2022/11/14 03:13:17;;;;;;;;;;;;;;;16.65;65.73;99195.75;2088927;28;20039;-45
2022/11/14 03:14:17;;;;;;;;;;;;;;;16.66;65.77;99199.28;2089144;28;19920;-45
2022/11/14 03:15:19;;;;;;;;;;;;;;;16.64;65.83;99196.78;2091819;28;19924;-45
2022/11/14 03:16:19;;;;;;;;;;;;;;;16.64;65.85;99198.63;2095000;28;19928;-47
2022/11/14 03:17:23;;;;;;;;;;;;;;;16.64;65.85;99195.97;2088081;28;19970;-45
2022/11/14 03:18:23;;;;;;;;;;;;;;;16.64;65.63;99199.47;2089362;28;19932;-47
2022/11/14 03:19:25;;;;;;;;;;;;;;;16.63;65.86;99199.63;2092035;28;19924;-46
2022/11/14 03:20:26;;;;;;;;;;;;;;;16.63;65.90;99195.13;2094436;28;19921;-46
2022/11/14 03:21:29;;;;;;;;;;;;;;;16.64;65.81;99193.28;2092006;28;19920;-45
2022/11/14 03:22:29;;;;;;;;;;;;;;;16.63;65.80;99195.13;2092306;28;19943;-46
2022/11/14 03:23:31;;;;;;;;;;;;;;;16.63;65.75;99199.63;2093953;28;20007;-46
2022/11/14 03:24:31;;;;;;;;;;;;;;;16.62;65.79;99200.66;2092439;28;19931;-46
2022/11/14 03:25:33;;;;;;;;;;;;;;;16.61;65.77;99199.81;2093404;28;20355;-45
2022/11/14 03:26:34;;;;;;;;;;;;;;;16.62;65.83;99193.44;2091562;28;20436;-46
2022/11/14 03:27:35;;;;;;;;;;;;;;;16.61;65.72;99190.97;2099757;28;19942;-47
2022/11/14 03:28:36;;;;;;;;;;;;;;;16.61;65.74;99190.97;2092774;28;19927;-46
2022/11/14 03:29:37;;;;;;;;;;;;;;;16.61;65.80;99191.78;2093301;28;20381;-45
2022/11/14 03:30:38;;;;;;;;;;;;;;;16.61;65.83;99181.06;2086609;28;19924;-47
2022/11/14 03:31:40;;;;;;;;;;;;;;;16.61;65.75;99189.09;2087955;28;19920;-44
2022/11/14 03:32:40;;;;;;;;;;;;;;;16.59;65.77;99185.75;2087555;28;19920;-44
2022/11/14 03:33:42;;;;;;;;;;;;;;;16.61;65.71;99190.97;2092910;28;19958;-48
2022/11/14 03:34:42;;;;;;;;;;;;;;;16.60;65.70;99198.13;2093466;28;19931;-46
2022/11/14 03:35:44;;;;;;;;;;;;;;;16.62;65.76;99190.75;2091215;28;19958;-46
2022/11/14 03:36:46;;;;;;;;;;;;;;;16.61;65.90;99193.63;2092559;28;20393;-47
2022/11/14 03:37:47;;;;;;;;;;;;;;;16.60;65.76;99195.47;2090681;28;19929;-45
2022/11/14 03:38:48;;;;;;;;;;;;;;;16.59;65.91;99191.13;2093012;28;19927;-47
2022/11/14 03:39:49;;;;;;;;;;;;;;;16.58;65.79;99189.47;2092118;28;19951;-46
2022/11/14 03:40:50;;;;;;;;;;;;;;;16.59;65.86;99190.28;2092318;28;19931;-46
2022/11/14 03:41:52;;;;;;;;;;;;;;;16.60;65.75;99190.09;2095366;28;19920;-46
2022/11/14 03:42:52;;;;;;;;;;;;;;;16.60;65.79;99189.28;2095148;28;19920;-46
2022/11/14 03:43:54;;;;;;;;;;;;;;;16.59;65.77;99193.81;2095238;28;20326;-46
2022/11/14 03:44:54;;;;;;;;;;;;;;;16.59;65.80;99196.47;2091923;28;19924;-44
2022/11/14 03:45:58;;;;;;;;;;;;;;;16.60;65.78;99194.63;2096190;28;20298;-47
2022/11/14 03:46:58;;;;;;;;;;;;;;;16.59;65.59;99187.63;2091575;28;19935;-46
2022/11/14 03:48:00;;;;;;;;;;;;;;;16.59;65.72;99183.09;2095341;28;20030;-47
2022/11/14 03:49:00;;;;;;;;;;;;;;;16.60;65.70;99189.28;2093801;28;19929;-44
2022/11/14 03:50:02;;;;;;;;;;;;;;;16.60;65.61;99186.59;2095095;28;20414;-46
2022/11/14 03:51:03;;;;;;;;;;;;;;;16.60;65.65;99190.09;2095957;28;19955;-48
2022/11/14 03:52:06;;;;;;;;;;;;;;;16.57;65.67;99185.09;2087846;28;19928;-47
2022/11/14 03:53:06;;;;;;;;;;;;;;;16.57;65.76;99187.78;2090068;28;19924;-48
2022/11/14 03:54:08;;;;;;;;;;;;;;;16.56;65.87;99180.75;2094528;28;20275;-46
2022/11/14 03:55:08;;;;;;;;;;;;;;;16.58;65.78;99186.78;2092909;28;19920;-45
2022/11/14 03:56:10;;;;;;;;;;;;;;;16.56;65.63;99180.75;2093319;28;20065;-45
2022/11/14 03:57:10;;;;;;;;;;;;;;;16.57;65.65;99181.59;2093668;28;19920;-48
2022/11/14 03:58:12;;;;;;;;;;;;;;;16.56;65.80;99182.63;2094292;28;19927;-48
2022/11/14 03:59:12;;;;;;;;;;;;;;;16.57;65.82;99185.09;2096012;28;19940;-45
2022/11/14 04:00:14;;;;;;;;;;;;;;;16.56;65.86;99180.75;2090404;28;20059;-45
2022/11/14 04:01:15;;;;;;;;;;;;;;;16.57;65.77;99185.09;2091532;28;20469;-45
2022/11/14 04:02:17;;;;;;;;;;;;;;;16.55;65.97;99181.78;2086120;28;19935;-45
2022/11/14 04:03:17;;;;;;;;;;;;;;;16.57;65.84;99184.28;2094765;28;20774;-45
2022/11/14 04:04:19;;;;;;;;;;;;;;;16.57;65.72;99189.63;2094394;28;19926;-46
2022/11/14 04:05:19;;;;;;;;;;;;;;;16.56;65.79;99183.44;2093006;28;19928;-48
2022/11/14 04:06:21;;;;;;;;;;;;;;;16.53;65.84;99189.16;2092969;28;20594;-45
2022/11/14 04:07:23;;;;;;;;;;;;;;;16.54;65.78;99185.47;2095371;28;19924;-45
2022/11/14 04:08:24;;;;;;;;;;;;;;;16.55;65.79;99187.16;2096287;28;20015;-46
2022/11/14 04:09:26;;;;;;;;;;;;;;;16.56;65.60;99182.63;2092367;28;19924;-46
2022/11/14 04:10:26;;;;;;;;;;;;;;;16.56;65.69;99178.09;2096405;28;19928;-49
2022/11/14 04:11:28;;;;;;;;;;;;;;;16.56;65.75;99186.13;2092744;28;20554;-48
2022/11/14 04:12:29;;;;;;;;;;;;;;;16.58;65.71;99183.28;2095137;28;20398;-47
2022/11/14 04:13:30;;;;;;;;;;;;;;;16.56;65.71;99186.13;2093207;28;19946;-45
2022/11/14 04:14:31;;;;;;;;;;;;;;;16.53;65.79;99183.81;2096384;28;20648;-45
2022/11/14 04:15:32;;;;;;;;;;;;;;;16.54;65.68;99180.09;2094002;28;19924;-47
2022/11/14 04:16:33;;;;;;;;;;;;;;;16.54;65.67;99186.28;2091704;28;20031;-45
2022/11/14 04:17:34;;;;;;;;;;;;;;;16.56;65.68;99182.63;2091934;28;20032;-45
2022/11/14 04:18:35;;;;;;;;;;;;;;;16.54;65.66;99180.09;2094995;28;19920;-44
2022/11/14 04:19:37;;;;;;;;;;;;;;;16.53;65.82;99181.13;2090275;28;20838;-46
2022/11/14 04:20:37;;;;;;;;;;;;;;;16.55;65.73;99184.47;2092995;28;19932;-47
2022/11/14 04:21:39;;;;;;;;;;;;;;;16.54;65.74;99185.47;2094914;28;20324;-46
2022/11/14 04:22:41;;;;;;;;;;;;;;;16.52;65.75;99176.78;2092637;28;19920;-47
2022/11/14 04:23:42;;;;;;;;;;;;;;;16.51;65.81;99181.28;2095788;28;19952;-48
2022/11/14 04:24:43;;;;;;;;;;;;;;;16.51;65.81;99175.09;2096081;28;20572;-46
2022/11/14 04:25:45;;;;;;;;;;;;;;;16.50;65.79;99187.66;2091943;28;19951;-48
2022/11/14 04:26:45;;;;;;;;;;;;;;;16.50;65.86;99179.63;2093223;28;19920;-45
2022/11/14 04:27:47;;;;;;;;;;;;;;;16.51;65.88;99180.47;2097857;28;20840;-47
2022/11/14 04:28:47;;;;;;;;;;;;;;;16.52;65.74;99174.13;2094490;28;19924;-46
2022/11/14 04:29:49;;;;;;;;;;;;;;;16.53;65.63;99178.44;2098004;28;19930;-48
2022/11/14 04:30:49;;;;;;;;;;;;;;;16.53;65.86;99176.59;2092084;28;19924;-45
2022/11/14 04:31:51;;;;;;;;;;;;;;;16.52;65.72;99177.63;2090311;28;19930;-46
2022/11/14 04:32:52;;;;;;;;;;;;;;;16.50;65.84;99174.28;2094622;28;20367;-48
2022/11/14 04:33:53;;;;;;;;;;;;;;;16.51;65.78;99175.09;2092090;28;19920;-46
2022/11/14 04:34:54;;;;;;;;;;;;;;;16.52;65.64;99177.63;2091526;28;19928;-46
2022/11/14 04:35:55;;;;;;;;;;;;;;;16.51;65.79;99175.94;2092999;28;20285;-48
2022/11/14 04:36:56;;;;;;;;;;;;;;;16.51;65.65;99175.09;2091459;28;19928;-48
2022/11/14 04:37:59;;;;;;;;;;;;;;;16.49;65.71;99174.44;2091566;28;19934;-47
2022/11/14 04:38:59;;;;;;;;;;;;;;;16.50;65.76;99179.63;2093792;28;19927;-47
2022/11/14 04:40:01;;;;;;;;;;;;;;;16.50;65.71;99179.63;2095750;28;19931;-47
2022/11/14 04:41:03;;;;;;;;;;;;;;;16.49;65.80;99177.13;2095488;28;19931;-47
2022/11/14 04:42:04;;;;;;;;;;;;;;;16.50;65.77;99178.81;2094884;28;20400;-45
2022/11/14 04:43:05;;;;;;;;;;;;;;;16.47;65.64;99177.31;2095436;28;19920;-48
2022/11/14 04:44:06;;;;;;;;;;;;;;;16.47;65.75;99174.63;2096110;28;19928;-45
2022/11/14 04:45:08;;;;;;;;;;;;;;;16.49;65.87;99179.78;2094084;28;20452;-44
2022/11/14 04:46:09;;;;;;;;;;;;;;;16.50;65.77;99181.47;2091486;28;19924;-46
2022/11/14 04:47:10;;;;;;;;;;;;;;;16.48;65.78;99172.78;2092040;28;20437;-47
2022/11/14 04:48:11;;;;;;;;;;;;;;;16.47;65.75;99171.94;2088246;28;19920;-45
2022/11/14 04:49:12;;;;;;;;;;;;;;;16.48;65.77;99176.28;2096896;28;20015;-48
2022/11/14 04:50:13;;;;;;;;;;;;;;;16.46;65.74;99175.63;2095402;28;20031;-46
2022/11/14 04:51:14;;;;;;;;;;;;;;;16.47;65.87;99177.31;2093122;28;20082;-46
2022/11/14 04:52:15;;;;;;;;;;;;;;;16.46;65.80;99182.81;2095946;28;19931;-48
2022/11/14 04:53:18;;;;;;;;;;;;;;;16.47;65.85;99179.16;2088825;28;20448;-46
2022/11/14 04:54:18;;;;;;;;;;;;;;;16.46;65.73;99178.28;2092999;28;19928;-46
2022/11/14 04:55:20;;;;;;;;;;;;;;;16.48;65.83;99175.47;2096449;28;20297;-44
2022/11/14 04:56:22;;;;;;;;;;;;;;;16.49;65.74;99177.13;2092769;28;19920;-46
2022/11/14 04:57:23;;;;;;;;;;;;;;;16.47;65.71;99174.63;2094771;28;19931;-46
2022/11/14 04:58:24;;;;;;;;;;;;;;;16.47;65.73;99181.84;2096247;28;19936;-45
2022/11/14 04:59:25;;;;;;;;;;;;;;;16.47;65.72;99184.50;2094819;28;19931;-44
2022/11/14 05:00:26;;;;;;;;;;;;;;;16.46;65.79;99180.97;2092182;28;19931;-44
2022/11/14 05:01:27;;;;;;;;;;;;;;;16.45;65.80;99183.84;2094745;28;19927;-45
2022/11/14 05:02:29;;;;;;;;;;;;;;;16.46;65.75;99178.28;2092916;28;19939;-48
2022/11/14 05:03:31;;;;;;;;;;;;;;;16.47;65.76;99179.16;2088063;28;19971;-46
2022/11/14 05:04:31;;;;;;;;;;;;;;;16.46;65.84;99178.28;2095660;28;19925;-46
2022/11/14 05:05:33;;;;;;;;;;;;;;;16.47;65.75;99184.50;2094182;28;19997;-49
2022/11/14 05:06:33;;;;;;;;;;;;;;;16.45;65.70;99184.69;2093080;28;19928;-50
2022/11/14 05:07:35;;;;;;;;;;;;;;;16.44;65.79;99183.03;2093425;28;20405;-45
2022/11/14 05:08:37;;;;;;;;;;;;;;;16.45;65.78;99186.53;2096858;28;19927;-45
2022/11/14 05:09:39;;;;;;;;;;;;;;;16.43;65.79;99181.31;2095773;28;20339;-47
2022/11/14 05:10:42;;;;;;;;;;;;;;;16.45;65.80;99186.53;2098517;28;19919;-47
2022/11/14 05:11:43;;;;;;;;;;;;;;;16.43;65.84;99186.69;2095012;28;19920;-46
2022/11/14 05:12:44;;;;;;;;;;;;;;;16.42;65.69;99190.38;2095585;28;19963;-45
2022/11/14 05:13:45;;;;;;;;;;;;;;;16.42;65.80;99186.88;2091825;28;20501;-47
2022/11/14 05:14:47;;;;;;;;;;;;;;;16.42;65.84;99186.88;2096562;28;20019;-44
2022/11/14 05:15:48;;;;;;;;;;;;;;;16.42;65.81;99187.72;2094893;28;20745;-45
2022/11/14 05:16:49;;;;;;;;;;;;;;;16.43;65.74;99184.00;2098431;28;19973;-44
2022/11/14 05:17:50;;;;;;;;;;;;;;;16.41;65.90;99183.38;2094757;28;19928;-45
2022/11/14 05:18:53;;;;;;;;;;;;;;;16.44;65.82;99192.91;2088107;28;20530;-47
2022/11/14 05:19:53;;;;;;;;;;;;;;;16.44;65.74;99184.88;2096741;28;19928;-48
2022/11/14 05:20:57;;;;;;;;;;;;;;;16.43;65.79;99183.19;2085663;28;20027;-47